createdAt,value
2017-04-17T00:00:54.162Z,20.39
2017-04-17T00:02:04.403Z,20.41
2017-04-17T00:03:14.648Z,20.47
2017-04-17T00:04:24.576Z,20.5
2017-04-17T00:05:34.506Z,20.51
2017-04-17T00:06:44.437Z,20.54
2017-04-17T00:07:54.364Z,20.48
2017-04-17T00:09:04.610Z,20.51
2017-04-17T00:10:14.540Z,20.48
2017-04-17T00:11:24.790Z,20.5
2017-04-17T00:12:35.079Z,20.51
2017-04-17T00:13:45.329Z,20.5
2017-04-17T00:14:55.258Z,20.51
2017-04-17T00:16:05.187Z,20.5
2017-04-17T00:17:15.111Z,20.5
2017-04-17T00:18:25.044Z,20.42
2017-04-17T00:19:35.288Z,20.55
2017-04-17T00:20:45.531Z,20.48
2017-04-17T00:21:55.461Z,20.48
2017-04-17T00:23:05.394Z,20.43
2017-04-17T00:24:15.632Z,20.43
2017-04-17T00:25:25.868Z,20.52
2017-04-17T00:26:35.808Z,20.47
2017-04-17T00:27:46.056Z,20.47
2017-04-17T00:28:56.253Z,20.5
2017-04-17T00:30:06.498Z,20.48
2017-04-17T00:31:16.817Z,20.5
2017-04-17T00:32:26.744Z,20.47
2017-04-17T00:33:36.991Z,20.47
2017-04-17T00:34:47.235Z,20.48
2017-04-17T00:35:57.476Z,20.48
2017-04-17T00:37:07.393Z,20.43
2017-04-17T00:38:17.317Z,20.42
2017-04-17T00:39:27.259Z,20.48
2017-04-17T00:40:36.874Z,20.48
2017-04-17T00:41:47.113Z,20.36
2017-04-17T00:42:57.350Z,20.35
2017-04-17T00:44:06.987Z,20.36
2017-04-17T00:45:16.954Z,20.38
2017-04-17T00:46:27.199Z,20.43
2017-04-17T00:47:37.446Z,20.42
2017-04-17T00:48:47.713Z,20.36
2017-04-17T00:49:57.955Z,20.35
2017-04-17T00:51:08.194Z,20.36
2017-04-17T00:52:18.462Z,20.38
2017-04-17T00:53:28.390Z,20.38
2017-04-17T00:54:38.000Z,20.36
2017-04-17T00:55:47.931Z,20.36
2017-04-17T00:56:58.168Z,20.36
2017-04-17T00:58:07.782Z,20.38
2017-04-17T00:59:18.073Z,20.38
2017-04-17T01:00:27.713Z,20.39
2017-04-17T01:01:37.992Z,20.35
2017-04-17T01:02:47.928Z,20.38
2017-04-17T01:03:57.869Z,20.41
2017-04-17T01:05:07.484Z,20.35
2017-04-17T01:06:17.932Z,20.29
2017-04-17T01:07:28.183Z,20.38
2017-04-17T01:08:38.427Z,20.35
2017-04-17T01:09:48.360Z,20.35
2017-04-17T01:10:58.599Z,20.41
2017-04-17T01:12:08.519Z,20.38
2017-04-17T01:13:18.134Z,20.32
2017-04-17T01:14:28.376Z,20.31
2017-04-17T01:15:38.301Z,20.36
2017-04-17T01:16:48.229Z,20.29
2017-04-17T01:17:58.468Z,20.32
2017-04-17T01:19:08.708Z,20.33
2017-04-17T01:20:18.325Z,20.31
2017-04-17T01:21:28.250Z,20.28
2017-04-17T01:22:38.506Z,20.32
2017-04-17T01:23:48.742Z,20.32
2017-04-17T01:24:58.672Z,20.32
2017-04-17T01:26:08.923Z,20.29
2017-04-17T01:27:18.531Z,20.29
2017-04-17T01:28:28.776Z,20.23
2017-04-17T01:29:39.020Z,20.17
2017-04-17T01:30:49.259Z,20.21
2017-04-17T01:31:58.884Z,20.16
2017-04-17T01:33:08.821Z,20.18
2017-04-17T01:34:18.868Z,20.17
2017-04-17T01:35:29.185Z,20.17
2017-04-17T01:36:39.468Z,20.11
2017-04-17T01:37:49.830Z,20.16
2017-04-17T01:38:59.760Z,20.14
2017-04-17T01:40:09.689Z,20.21
2017-04-17T01:41:19.933Z,20.16
2017-04-17T01:42:29.854Z,20.08
2017-04-17T01:43:39.781Z,20.01
2017-04-17T01:44:49.401Z,20.17
2017-04-17T01:45:59.012Z,20.14
2017-04-17T01:47:09.250Z,20.11
2017-04-17T01:48:19.488Z,20.14
2017-04-17T01:49:29.422Z,20.05
2017-04-17T01:50:39.661Z,20.14
2017-04-17T01:51:48.960Z,20.05
2017-04-17T01:52:59.208Z,20.08
2017-04-17T01:54:09.138Z,20.08
2017-04-17T01:55:19.076Z,20.1
2017-04-17T01:56:29.321Z,20.08
2017-04-17T01:57:39.560Z,20.11
2017-04-17T01:58:49.796Z,20.05
2017-04-17T02:00:00.040Z,20.1
2017-04-17T02:01:09.968Z,20.06
2017-04-17T02:02:20.214Z,20.1
2017-04-17T02:03:30.292Z,20.06
2017-04-17T02:04:40.531Z,20.1
2017-04-17T02:05:50.454Z,20.06
2017-04-17T02:07:00.695Z,20.13
2017-04-17T02:08:10.303Z,20.1
2017-04-17T02:09:20.232Z,20.08
2017-04-17T02:10:30.478Z,20.03
2017-04-17T02:11:40.408Z,20.13
2017-04-17T02:12:50.658Z,20.06
2017-04-17T02:14:00.272Z,20.08
2017-04-17T02:15:09.879Z,20.06
2017-04-17T02:16:19.176Z,20.05
2017-04-17T02:17:29.413Z,20.1
2017-04-17T02:18:39.663Z,20.1
2017-04-17T02:19:49.903Z,20.05
2017-04-17T02:20:59.823Z,20.03
2017-04-17T02:22:09.748Z,20.08
2017-04-17T02:23:19.676Z,20.1
2017-04-17T02:24:29.918Z,20.06
2017-04-17T02:25:40.156Z,20.08
2017-04-17T02:26:50.090Z,19.95
2017-04-17T02:28:00.355Z,20.08
2017-04-17T02:29:09.976Z,20.03
2017-04-17T02:30:19.919Z,20.05
2017-04-17T02:31:30.156Z,19.95
2017-04-17T02:32:40.391Z,19.95
2017-04-17T02:33:50.633Z,19.96
2017-04-17T02:35:00.867Z,19.98
2017-04-17T02:36:10.798Z,20.05
2017-04-17T02:37:20.732Z,20.08
2017-04-17T02:38:31.042Z,20.03
2017-04-17T02:39:41.718Z,20.08
2017-04-17T02:40:51.955Z,20.02
2017-04-17T02:42:02.195Z,19.98
2017-04-17T02:43:11.499Z,19.95
2017-04-17T02:44:21.740Z,20.08
2017-04-17T02:45:31.986Z,20.08
2017-04-17T02:46:41.905Z,20.03
2017-04-17T02:47:52.159Z,19.95
2017-04-17T02:49:02.399Z,19.94
2017-04-17T02:50:12.322Z,20.02
2017-04-17T02:51:22.559Z,19.95
2017-04-17T02:52:32.846Z,19.98
2017-04-17T02:53:43.084Z,20.02
2017-04-17T02:54:53.320Z,19.94
2017-04-17T02:56:03.251Z,19.98
2017-04-17T02:57:12.889Z,19.94
2017-04-17T02:58:22.822Z,19.96
2017-04-17T02:59:32.751Z,19.95
2017-04-17T03:00:42.365Z,19.99
2017-04-17T03:01:52.298Z,19.98
2017-04-17T03:03:02.228Z,19.96
2017-04-17T03:04:12.504Z,19.98
2017-04-17T03:05:22.749Z,19.95
2017-04-17T03:06:32.995Z,19.96
2017-04-17T03:07:43.510Z,19.96
2017-04-17T03:08:53.487Z,19.95
2017-04-17T03:10:03.419Z,19.92
2017-04-17T03:11:13.350Z,19.96
2017-04-17T03:12:23.589Z,19.94
2017-04-17T03:13:33.517Z,19.94
2017-04-17T03:14:43.762Z,19.94
2017-04-17T03:15:53.685Z,19.96
2017-04-17T03:17:03.616Z,19.92
2017-04-17T03:18:13.545Z,19.99
2017-04-17T03:19:23.153Z,19.99
2017-04-17T03:20:33.398Z,19.95
2017-04-17T03:21:43.332Z,19.98
2017-04-17T03:22:53.255Z,19.99
2017-04-17T03:24:02.566Z,19.95
2017-04-17T03:25:12.187Z,20.03
2017-04-17T03:26:22.116Z,19.98
2017-04-17T03:27:32.047Z,19.96
2017-04-17T03:28:42.304Z,19.98
2017-04-17T03:29:52.540Z,20.01
2017-04-17T03:31:01.837Z,19.95
2017-04-17T03:32:12.075Z,19.95
2017-04-17T03:33:22.319Z,20.06
2017-04-17T03:34:32.565Z,20.03
2017-04-17T03:35:42.497Z,20.06
2017-04-17T03:36:52.117Z,20.13
2017-04-17T03:38:01.735Z,20.18
2017-04-17T03:39:11.987Z,20.2
2017-04-17T03:40:22.694Z,20.14
2017-04-17T03:41:32.932Z,20.14
2017-04-17T03:42:43.170Z,20.16
2017-04-17T03:43:52.625Z,20.17
2017-04-17T03:45:02.938Z,20.05
2017-04-17T03:46:12.553Z,20.14
2017-04-17T03:47:22.164Z,20.08
2017-04-17T03:48:32.404Z,20.08
2017-04-17T03:49:42.644Z,20.1
2017-04-17T03:50:52.883Z,20.06
2017-04-17T03:52:03.127Z,20.08
2017-04-17T03:53:12.760Z,20.03
2017-04-17T03:54:22.686Z,19.98
2017-04-17T03:55:32.929Z,20.06
2017-04-17T03:56:42.859Z,20.02
2017-04-17T03:57:52.788Z,19.95
2017-04-17T03:59:03.034Z,19.95
2017-04-17T04:00:13.286Z,20.02
2017-04-17T04:01:23.523Z,19.94
2017-04-17T04:02:33.447Z,19.96
2017-04-17T04:03:43.699Z,19.94
2017-04-17T04:04:53.632Z,19.95
2017-04-17T04:06:03.880Z,19.96
2017-04-17T04:07:14.118Z,19.94
2017-04-17T04:08:24.363Z,19.96
2017-04-17T04:09:34.599Z,19.99
2017-04-17T04:10:44.834Z,19.92
2017-04-17T04:11:54.448Z,19.98
2017-04-17T04:13:04.686Z,19.94
2017-04-17T04:14:14.614Z,19.98
2017-04-17T04:15:24.859Z,20.03
2017-04-17T04:16:35.098Z,19.98
2017-04-17T04:17:45.023Z,20.01
2017-04-17T04:18:54.638Z,19.98
2017-04-17T04:20:04.570Z,19.95
2017-04-17T04:21:14.810Z,19.98
2017-04-17T04:22:25.045Z,20.05
2017-04-17T04:23:35.292Z,19.98
2017-04-17T04:24:45.221Z,19.98
2017-04-17T04:25:54.518Z,19.99
2017-04-17T04:27:04.759Z,20.01
2017-04-17T04:28:14.377Z,19.98
2017-04-17T04:29:24.612Z,19.95
2017-04-17T04:30:34.847Z,19.98
2017-04-17T04:31:44.463Z,19.95
2017-04-17T04:32:54.711Z,19.99
2017-04-17T04:34:04.950Z,19.96
2017-04-17T04:35:14.246Z,19.98
2017-04-17T04:36:24.165Z,19.94
2017-04-17T04:37:34.402Z,19.95
2017-04-17T04:38:44.647Z,19.98
2017-04-17T04:39:54.895Z,20.01
2017-04-17T04:41:05.126Z,19.94
2017-04-17T04:42:15.061Z,19.95
2017-04-17T04:43:25.298Z,19.98
2017-04-17T04:44:35.541Z,19.95
2017-04-17T04:45:45.785Z,19.95
2017-04-17T04:46:56.022Z,19.98
2017-04-17T04:48:06.254Z,19.92
2017-04-17T04:49:16.553Z,19.99
2017-04-17T04:50:26.943Z,19.98
2017-04-17T04:51:37.181Z,19.94
2017-04-17T04:52:47.418Z,19.98
2017-04-17T04:53:57.348Z,19.98
2017-04-17T04:55:07.587Z,19.98
2017-04-17T04:56:17.194Z,19.95
2017-04-17T04:57:27.430Z,19.95
2017-04-17T04:58:37.048Z,19.95
2017-04-17T04:59:46.979Z,19.98
2017-04-17T05:00:56.897Z,19.91
2017-04-17T05:02:06.829Z,19.94
2017-04-17T05:03:17.071Z,19.94
2017-04-17T05:04:27.308Z,19.91
2017-04-17T05:05:37.236Z,19.94
2017-04-17T05:06:47.162Z,20.01
2017-04-17T05:07:57.094Z,19.95
2017-04-17T05:09:07.021Z,20.01
2017-04-17T05:10:17.268Z,19.99
2017-04-17T05:11:27.513Z,20.02
2017-04-17T05:12:37.757Z,19.94
2017-04-17T05:13:47.690Z,19.92
2017-04-17T05:14:57.619Z,20.02
2017-04-17T05:16:07.543Z,19.92
2017-04-17T05:17:17.151Z,19.98
2017-04-17T05:18:27.084Z,19.88
2017-04-17T05:19:37.327Z,19.88
2017-04-17T05:20:46.946Z,19.94
2017-04-17T05:21:56.879Z,19.95
2017-04-17T05:23:06.630Z,19.99
2017-04-17T05:24:16.611Z,19.92
2017-04-17T05:25:26.857Z,19.98
2017-04-17T05:26:37.091Z,19.95
2017-04-17T05:27:46.850Z,19.88
2017-04-17T05:28:57.098Z,19.91
2017-04-17T05:30:07.035Z,19.96
2017-04-17T05:31:17.272Z,19.98
2017-04-17T05:32:27.207Z,19.92
2017-04-17T05:33:37.138Z,19.96
2017-04-17T05:34:47.380Z,19.96
2017-04-17T05:35:57.309Z,19.92
2017-04-17T05:37:07.545Z,19.96
2017-04-17T05:38:17.796Z,19.94
2017-04-17T05:39:28.040Z,19.94
2017-04-17T05:40:38.278Z,19.95
2017-04-17T05:41:48.206Z,19.95
2017-04-17T05:42:58.445Z,19.94
2017-04-17T05:44:08.692Z,19.88
2017-04-17T05:45:18.618Z,19.96
2017-04-17T05:46:28.852Z,19.92
2017-04-17T05:47:38.781Z,19.94
2017-04-17T05:48:49.028Z,19.96
2017-04-17T05:49:59.267Z,19.96
2017-04-17T05:51:09.501Z,19.94
2017-04-17T05:52:19.433Z,20.05
2017-04-17T05:53:29.692Z,19.86
2017-04-17T05:54:39.626Z,19.94
2017-04-17T05:55:49.869Z,19.98
2017-04-17T05:57:00.113Z,19.92
2017-04-17T05:58:10.352Z,19.91
2017-04-17T05:59:20.289Z,19.92
2017-04-17T06:00:30.275Z,19.91
2017-04-17T06:01:40.517Z,19.98
2017-04-17T06:02:50.447Z,19.95
2017-04-17T06:04:00.688Z,19.98
2017-04-17T06:05:10.930Z,19.94
2017-04-17T06:06:21.193Z,20.01
2017-04-17T06:07:30.805Z,19.95
2017-04-17T06:08:41.062Z,20.01
2017-04-17T06:09:51.309Z,20.02
2017-04-17T06:11:01.566Z,20.1
2017-04-17T06:12:11.486Z,20.14
2017-04-17T06:13:21.729Z,20.13
2017-04-17T06:14:31.338Z,20.16
2017-04-17T06:15:41.265Z,20.17
2017-04-17T06:16:51.505Z,20.14
2017-04-17T06:18:01.737Z,20.18
2017-04-17T06:19:11.983Z,20.23
2017-04-17T06:20:22.219Z,20.06
2017-04-17T06:21:32.151Z,20.17
2017-04-17T06:22:42.396Z,20.05
2017-04-17T06:23:52.637Z,20.06
2017-04-17T06:25:02.872Z,20.17
2017-04-17T06:26:13.119Z,20.11
2017-04-17T06:27:23.051Z,20.05
2017-04-17T06:28:32.986Z,20.03
2017-04-17T06:29:43.239Z,20.08
2017-04-17T06:30:52.869Z,20.05
2017-04-17T06:32:03.210Z,20.11
2017-04-17T06:33:13.452Z,20.11
2017-04-17T06:34:23.996Z,20.14
2017-04-17T06:35:34.243Z,20.14
2017-04-17T06:36:44.228Z,20.1
2017-04-17T06:37:54.473Z,20.11
2017-04-17T06:39:04.717Z,20.13
2017-04-17T06:40:14.327Z,20.13
2017-04-17T06:41:24.252Z,20.11
2017-04-17T06:42:34.489Z,20.02
2017-04-17T06:43:44.735Z,20.13
2017-04-17T06:44:54.985Z,20.16
2017-04-17T06:46:05.227Z,20.1
2017-04-17T06:47:14.836Z,20.16
2017-04-17T06:48:25.075Z,20.18
2017-04-17T06:49:35.314Z,20.08
2017-04-17T06:50:45.248Z,20.16
2017-04-17T06:51:55.486Z,20.23
2017-04-17T06:53:05.417Z,20.23
2017-04-17T06:54:15.654Z,20.26
2017-04-17T06:55:25.578Z,20.24
2017-04-17T06:56:35.499Z,20.26
2017-04-17T06:57:45.739Z,20.14
2017-04-17T06:58:55.669Z,20.13
2017-04-17T07:00:05.595Z,20.24
2017-04-17T07:01:15.206Z,20.28
2017-04-17T07:02:25.453Z,20.31
2017-04-17T07:03:35.384Z,20.24
2017-04-17T07:04:45.314Z,20.24
2017-04-17T07:05:55.240Z,20.28
2017-04-17T07:07:05.174Z,20.26
2017-04-17T07:08:15.101Z,20.39
2017-04-17T07:09:25.338Z,20.43
2017-04-17T07:10:35.580Z,20.39
2017-04-17T07:11:45.814Z,20.36
2017-04-17T07:12:55.735Z,20.43
2017-04-17T07:14:05.981Z,20.5
2017-04-17T07:15:16.227Z,20.48
2017-04-17T07:16:26.149Z,20.43
2017-04-17T07:17:36.079Z,20.5
2017-04-17T07:18:46.014Z,20.47
2017-04-17T07:19:56.253Z,20.48
2017-04-17T07:21:06.182Z,20.48
2017-04-17T07:22:16.429Z,20.5
2017-04-17T07:23:26.670Z,20.42
2017-04-17T07:24:36.615Z,20.48
2017-04-17T07:25:46.550Z,20.5
2017-04-17T07:26:56.788Z,20.61
2017-04-17T07:28:07.027Z,20.62
2017-04-17T07:29:16.957Z,20.61
2017-04-17T07:30:27.198Z,20.62
2017-04-17T07:31:37.431Z,20.61
2017-04-17T07:32:47.675Z,20.61
2017-04-17T07:33:57.913Z,20.58
2017-04-17T07:35:07.849Z,20.59
2017-04-17T07:36:17.468Z,20.57
2017-04-17T07:37:27.706Z,20.62
2017-04-17T07:38:37.647Z,20.59
2017-04-17T07:39:47.898Z,20.58
2017-04-17T07:40:58.144Z,20.58
2017-04-17T07:42:08.079Z,20.55
2017-04-17T07:43:17.696Z,20.62
2017-04-17T07:44:27.627Z,20.62
2017-04-17T07:45:37.973Z,20.64
2017-04-17T07:46:48.214Z,20.7
2017-04-17T07:47:58.575Z,20.59
2017-04-17T07:49:08.835Z,20.61
2017-04-17T07:50:19.079Z,20.59
2017-04-17T07:51:29.319Z,20.58
2017-04-17T07:52:39.564Z,20.61
2017-04-17T07:53:49.200Z,20.59
2017-04-17T07:54:59.441Z,20.74
2017-04-17T07:56:09.686Z,20.7
2017-04-17T07:57:19.609Z,20.73
2017-04-17T07:58:29.850Z,20.73
2017-04-17T07:59:39.789Z,20.74
2017-04-17T08:00:49.714Z,20.72
2017-04-17T08:01:59.955Z,20.74
2017-04-17T08:03:09.571Z,20.72
2017-04-17T08:04:19.202Z,20.73
2017-04-17T08:05:29.439Z,20.76
2017-04-17T08:06:39.364Z,20.79
2017-04-17T08:07:49.612Z,20.79
2017-04-17T08:08:59.541Z,20.76
2017-04-17T08:10:10.205Z,20.76
2017-04-17T08:11:20.982Z,20.76
2017-04-17T08:12:31.744Z,20.72
2017-04-17T08:13:42.111Z,20.76
2017-04-17T08:14:53.234Z,20.79
2017-04-17T08:16:04.467Z,20.76
2017-04-17T08:17:15.255Z,20.8
2017-04-17T08:18:26.588Z,20.74
2017-04-17T08:19:36.980Z,20.8
2017-04-17T08:20:48.096Z,20.79
2017-04-17T08:21:59.251Z,20.76
2017-04-17T08:23:10.389Z,20.84
2017-04-17T08:24:21.152Z,20.74
2017-04-17T08:25:32.317Z,20.8
2017-04-17T08:26:43.479Z,20.8
2017-04-17T08:27:54.602Z,20.85
2017-04-17T08:29:05.217Z,20.82
2017-04-17T08:30:16.155Z,20.84
2017-04-17T08:31:26.669Z,20.85
2017-04-17T08:32:37.326Z,20.85
2017-04-17T08:33:48.472Z,20.91
2017-04-17T08:34:59.526Z,20.94
2017-04-17T08:36:10.093Z,20.48
2017-04-17T08:37:20.614Z,19.36
2017-04-17T08:38:31.466Z,18.66
2017-04-17T08:39:42.491Z,18.42
2017-04-17T08:40:53.297Z,18.11
2017-04-17T08:42:04.205Z,18.12
2017-04-17T08:43:14.525Z,18
2017-04-17T08:44:25.113Z,18.12
2017-04-17T08:45:35.781Z,17.82
2017-04-17T08:46:46.366Z,17.97
2017-04-17T08:47:56.808Z,18.14
2017-04-17T08:49:07.957Z,18.2
2017-04-17T08:50:17.931Z,18.14
2017-04-17T08:51:28.242Z,18.15
2017-04-17T08:52:38.803Z,18.08
2017-04-17T08:53:49.426Z,18.42
2017-04-17T08:54:59.724Z,18.35
2017-04-17T08:56:09.958Z,18.32
2017-04-17T08:57:20.224Z,18.29
2017-04-17T08:58:30.315Z,18.62
2017-04-17T08:59:40.314Z,18.99
2017-04-17T09:00:50.596Z,19.36
2017-04-17T09:02:00.213Z,19.56
2017-04-17T09:03:10.459Z,19.77
2017-04-17T09:04:20.398Z,19.87
2017-04-17T09:05:30.631Z,19.98
2017-04-17T09:06:40.870Z,20.03
2017-04-17T09:07:51.114Z,20.14
2017-04-17T09:09:01.366Z,20.18
2017-04-17T09:10:11.296Z,20.14
2017-04-17T09:11:21.235Z,20.33
2017-04-17T09:12:31.472Z,20.38
2017-04-17T09:13:41.725Z,20.48
2017-04-17T09:14:51.964Z,20.48
2017-04-17T09:16:01.896Z,20.51
2017-04-17T09:17:12.135Z,20.5
2017-04-17T09:18:22.471Z,20.58
2017-04-17T09:19:32.847Z,20.55
2017-04-17T09:20:43.150Z,20.54
2017-04-17T09:21:53.234Z,20.52
2017-04-17T09:23:03.505Z,20.57
2017-04-17T09:24:13.747Z,20.74
2017-04-17T09:25:23.676Z,20.64
2017-04-17T09:26:33.603Z,20.74
2017-04-17T09:27:43.859Z,20.67
2017-04-17T09:28:54.111Z,20.72
2017-04-17T09:30:04.032Z,20.74
2017-04-17T09:31:13.961Z,20.67
2017-04-17T09:32:23.885Z,20.77
2017-04-17T09:33:33.815Z,20.69
2017-04-17T09:34:44.071Z,20.76
2017-04-17T09:35:54.324Z,20.8
2017-04-17T09:37:04.573Z,20.77
2017-04-17T09:38:14.507Z,20.76
2017-04-17T09:39:24.751Z,20.79
2017-04-17T09:40:34.691Z,20.8
2017-04-17T09:41:43.994Z,20.82
2017-04-17T09:42:54.242Z,20.66
2017-04-17T09:44:04.182Z,20.82
2017-04-17T09:45:14.104Z,20.77
2017-04-17T09:46:23.406Z,20.76
2017-04-17T09:47:33.025Z,20.79
2017-04-17T09:48:43.268Z,20.73
2017-04-17T09:49:52.888Z,20.77
2017-04-17T09:51:02.812Z,20.82
2017-04-17T09:52:12.425Z,20.87
2017-04-17T09:53:22.666Z,20.77
2017-04-17T09:54:32.280Z,20.79
2017-04-17T09:55:42.523Z,20.82
2017-04-17T09:56:52.767Z,20.76
2017-04-17T09:58:03.007Z,20.88
2017-04-17T09:59:13.255Z,20.85
2017-04-17T10:00:23.181Z,20.79
2017-04-17T10:01:33.618Z,20.88
2017-04-17T10:02:44.017Z,20.89
2017-04-17T10:03:54.060Z,20.91
2017-04-17T10:05:03.983Z,20.89
2017-04-17T10:06:14.231Z,20.91
2017-04-17T10:07:24.470Z,20.89
2017-04-17T10:08:34.091Z,20.87
2017-04-17T10:09:44.025Z,20.89
2017-04-17T10:10:53.953Z,21.03
2017-04-17T10:12:04.204Z,20.95
2017-04-17T10:13:14.443Z,20.48
2017-04-17T10:14:24.078Z,19.77
2017-04-17T10:15:33.701Z,19.25
2017-04-17T10:16:43.963Z,19.18
2017-04-17T10:17:53.901Z,19.22
2017-04-17T10:19:04.722Z,19.58
2017-04-17T10:20:14.972Z,19.81
2017-04-17T10:21:25.220Z,20.11
2017-04-17T10:22:35.457Z,20.21
2017-04-17T10:23:45.388Z,20.41
2017-04-17T10:24:55.632Z,20.51
2017-04-17T10:26:05.249Z,20.52
2017-04-17T10:27:15.173Z,20.43
2017-04-17T10:28:25.440Z,20.51
2017-04-17T10:29:35.371Z,20.51
2017-04-17T10:30:45.303Z,20.47
2017-04-17T10:31:55.538Z,20.57
2017-04-17T10:33:05.789Z,20.58
2017-04-17T10:34:16.023Z,20.59
2017-04-17T10:35:26.284Z,20.58
2017-04-17T10:36:36.211Z,20.67
2017-04-17T10:37:46.182Z,20.72
2017-04-17T10:38:56.418Z,20.73
2017-04-17T10:40:06.365Z,20.67
2017-04-17T10:41:16.510Z,20.77
2017-04-17T10:42:26.498Z,20.76
2017-04-17T10:43:36.429Z,20.76
2017-04-17T10:44:46.695Z,20.79
2017-04-17T10:45:56.299Z,20.82
2017-04-17T10:47:06.231Z,20.74
2017-04-17T10:48:16.473Z,20.8
2017-04-17T10:49:26.402Z,20.79
2017-04-17T10:50:36.012Z,20.79
2017-04-17T10:51:46.242Z,20.73
2017-04-17T10:52:56.484Z,20.88
2017-04-17T10:54:06.721Z,20.79
2017-04-17T10:55:16.965Z,20.8
2017-04-17T10:56:26.896Z,20.84
2017-04-17T10:57:37.132Z,20.8
2017-04-17T10:58:47.378Z,20.82
2017-04-17T10:59:57.623Z,20.73
2017-04-17T11:01:07.870Z,20.69
2017-04-17T11:02:18.107Z,20.8
2017-04-17T11:03:27.722Z,20.66
2017-04-17T11:04:37.647Z,20.79
2017-04-17T11:05:47.891Z,20.76
2017-04-17T11:06:58.131Z,20.77
2017-04-17T11:08:08.411Z,20.7
2017-04-17T11:09:18.657Z,20.72
2017-04-17T11:10:28.587Z,20.74
2017-04-17T11:11:38.530Z,20.79
2017-04-17T11:12:48.799Z,20.79
2017-04-17T11:13:59.037Z,20.72
2017-04-17T11:15:08.962Z,20.72
2017-04-17T11:16:19.203Z,20.77
2017-04-17T11:17:29.607Z,20.82
2017-04-17T11:18:39.853Z,20.77
2017-04-17T11:19:50.457Z,20.77
2017-04-17T11:21:00.751Z,20.8
2017-04-17T11:22:10.987Z,20.8
2017-04-17T11:23:21.237Z,20.77
2017-04-17T11:24:31.473Z,20.76
2017-04-17T11:25:41.733Z,20.82
2017-04-17T11:26:51.994Z,20.79
2017-04-17T11:28:01.936Z,20.73
2017-04-17T11:29:11.548Z,20.72
2017-04-17T11:30:21.477Z,20.76
2017-04-17T11:31:31.398Z,20.82
2017-04-17T11:32:41.325Z,20.73
2017-04-17T11:33:51.259Z,20.74
2017-04-17T11:35:01.198Z,20.77
2017-04-17T11:36:11.124Z,20.77
2017-04-17T11:37:21.366Z,20.72
2017-04-17T11:38:31.617Z,20.72
2017-04-17T11:39:41.863Z,20.73
2017-04-17T11:40:52.107Z,20.67
2017-04-17T11:42:02.030Z,20.79
2017-04-17T11:43:11.960Z,20.8
2017-04-17T11:44:21.887Z,20.77
2017-04-17T11:45:32.126Z,20.74
2017-04-17T11:46:42.049Z,20.76
2017-04-17T11:47:51.982Z,20.8
2017-04-17T11:49:01.907Z,20.79
2017-04-17T11:50:11.519Z,20.77
2017-04-17T11:51:21.764Z,20.77
2017-04-17T11:52:32.002Z,20.69
2017-04-17T11:53:41.942Z,20.79
2017-04-17T11:54:51.879Z,20.88
2017-04-17T11:56:02.123Z,20.85
2017-04-17T11:57:12.391Z,20.69
2017-04-17T11:58:22.437Z,20.67
2017-04-17T11:59:32.635Z,20.82
2017-04-17T12:00:42.875Z,20.82
2017-04-17T12:01:53.257Z,20.7
2017-04-17T12:03:03.505Z,20.7
2017-04-17T12:04:13.758Z,20.76
2017-04-17T12:05:23.683Z,20.74
2017-04-17T12:06:33.605Z,20.79
2017-04-17T12:07:43.565Z,20.88
2017-04-17T12:08:53.498Z,20.77
2017-04-17T12:10:03.428Z,20.74
2017-04-17T12:11:13.674Z,20.74
2017-04-17T12:12:23.603Z,20.77
2017-04-17T12:13:33.849Z,20.77
2017-04-17T12:14:44.091Z,20.76
2017-04-17T12:15:54.341Z,20.76
2017-04-17T12:17:04.579Z,20.74
2017-04-17T12:18:14.823Z,20.72
2017-04-17T12:19:24.748Z,20.8
2017-04-17T12:20:34.362Z,20.8
2017-04-17T12:21:44.597Z,20.76
2017-04-17T12:22:54.210Z,20.79
2017-04-17T12:24:04.142Z,20.84
2017-04-17T12:25:14.396Z,20.77
2017-04-17T12:26:24.622Z,20.66
2017-04-17T12:27:34.556Z,20.84
2017-04-17T12:28:44.494Z,20.74
2017-04-17T12:29:54.736Z,20.82
2017-04-17T12:31:04.972Z,20.76
2017-04-17T12:32:15.211Z,20.74
2017-04-17T12:33:25.453Z,20.72
2017-04-17T12:34:35.704Z,20.7
2017-04-17T12:35:45.631Z,20.73
2017-04-17T12:36:55.875Z,20.74
2017-04-17T12:38:06.112Z,20.72
2017-04-17T12:39:16.352Z,20.74
2017-04-17T12:40:26.325Z,20.76
2017-04-17T12:41:36.837Z,20.76
2017-04-17T12:42:46.720Z,20.79
2017-04-17T12:43:56.979Z,20.79
2017-04-17T12:45:07.218Z,20.76
2017-04-17T12:46:17.139Z,20.77
2017-04-17T12:47:27.063Z,20.8
2017-04-17T12:48:37.299Z,20.79
2017-04-17T12:49:47.233Z,20.8
2017-04-17T12:50:57.386Z,20.73
2017-04-17T12:52:07.629Z,20.79
2017-04-17T12:53:17.872Z,20.85
2017-04-17T12:54:27.798Z,20.76
2017-04-17T12:55:38.041Z,20.8
2017-04-17T12:56:48.281Z,20.77
2017-04-17T12:57:58.519Z,20.72
2017-04-17T12:59:08.761Z,20.76
2017-04-17T13:00:19.003Z,20.7
2017-04-17T13:01:29.244Z,20.74
2017-04-17T13:02:39.491Z,20.85
2017-04-17T13:03:49.733Z,20.82
2017-04-17T13:04:59.663Z,20.8
2017-04-17T13:06:09.905Z,20.8
2017-04-17T13:07:20.143Z,20.91
2017-04-17T13:08:30.385Z,20.77
2017-04-17T13:09:40.311Z,20.77
2017-04-17T13:10:50.246Z,20.84
2017-04-17T13:12:00.172Z,20.73
2017-04-17T13:13:10.415Z,20.79
2017-04-17T13:14:20.355Z,20.79
2017-04-17T13:15:30.599Z,20.76
2017-04-17T13:16:40.841Z,20.79
2017-04-17T13:17:50.147Z,20.82
2017-04-17T13:19:00.390Z,20.82
2017-04-17T13:20:10.312Z,20.76
2017-04-17T13:21:20.290Z,20.73
2017-04-17T13:22:30.395Z,20.73
2017-04-17T13:23:40.563Z,20.85
2017-04-17T13:24:50.873Z,20.77
2017-04-17T13:26:00.800Z,20.8
2017-04-17T13:27:10.727Z,20.8
2017-04-17T13:28:20.654Z,20.76
2017-04-17T13:29:30.905Z,20.79
2017-04-17T13:30:41.152Z,20.72
2017-04-17T13:31:51.073Z,20.74
2017-04-17T13:33:01.318Z,20.77
2017-04-17T13:34:11.555Z,20.76
2017-04-17T13:35:21.483Z,20.76
2017-04-17T13:36:31.720Z,20.76
2017-04-17T13:37:41.965Z,20.8
2017-04-17T13:38:51.271Z,20.76
2017-04-17T13:40:01.514Z,20.76
2017-04-17T13:41:11.750Z,20.74
2017-04-17T13:42:21.366Z,20.82
2017-04-17T13:43:31.295Z,20.76
2017-04-17T13:44:40.934Z,20.73
2017-04-17T13:45:51.175Z,20.79
2017-04-17T13:47:01.107Z,20.74
2017-04-17T13:48:10.097Z,20.85
2017-04-17T13:49:20.031Z,20.74
2017-04-17T13:50:30.291Z,20.77
2017-04-17T13:51:40.532Z,20.73
2017-04-17T13:52:50.464Z,20.76
2017-04-17T13:54:00.699Z,20.69
2017-04-17T13:55:10.936Z,20.8
2017-04-17T13:56:20.864Z,20.84
2017-04-17T13:57:30.807Z,20.82
2017-04-17T13:58:41.089Z,20.8
2017-04-17T13:59:51.240Z,20.74
2017-04-17T14:01:01.485Z,20.8
2017-04-17T14:02:11.520Z,20.74
2017-04-17T14:03:21.140Z,20.8
2017-04-17T14:04:31.063Z,20.74
2017-04-17T14:05:40.677Z,20.8
2017-04-17T14:06:50.915Z,20.87
2017-04-17T14:08:00.857Z,20.8
2017-04-17T14:09:11.094Z,20.84
2017-04-17T14:10:21.339Z,20.76
2017-04-17T14:11:31.267Z,20.8
2017-04-17T14:12:41.195Z,20.79
2017-04-17T14:13:51.444Z,20.8
2017-04-17T14:15:01.690Z,20.82
2017-04-17T14:16:11.613Z,20.79
2017-04-17T14:17:21.853Z,20.84
2017-04-17T14:18:32.094Z,20.79
2017-04-17T14:19:42.335Z,20.79
2017-04-17T14:20:51.947Z,20.84
2017-04-17T14:22:01.881Z,20.82
2017-04-17T14:23:11.811Z,20.82
2017-04-17T14:24:22.059Z,20.79
2017-04-17T14:25:32.297Z,20.85
2017-04-17T14:26:42.533Z,20.77
2017-04-17T14:27:52.778Z,20.79
2017-04-17T14:29:02.707Z,20.82
2017-04-17T14:30:12.644Z,20.74
2017-04-17T14:31:22.900Z,20.8
2017-04-17T14:32:33.143Z,20.84
2017-04-17T14:33:42.766Z,20.74
2017-04-17T14:34:52.690Z,20.84
2017-04-17T14:36:02.929Z,20.82
2017-04-17T14:37:12.550Z,20.77
2017-04-17T14:38:22.165Z,20.76
2017-04-17T14:39:32.406Z,20.76
2017-04-17T14:40:42.647Z,20.8
2017-04-17T14:41:52.891Z,20.85
2017-04-17T14:43:03.129Z,20.76
2017-04-17T14:44:13.551Z,20.73
2017-04-17T14:45:23.815Z,20.76
2017-04-17T14:46:33.736Z,20.72
2017-04-17T14:47:44.009Z,20.77
2017-04-17T14:48:54.250Z,20.8
2017-04-17T14:50:04.203Z,20.85
2017-04-17T14:51:14.441Z,20.76
2017-04-17T14:52:24.694Z,20.74
2017-04-17T14:53:34.622Z,20.8
2017-04-17T14:54:44.237Z,20.77
2017-04-17T14:55:54.159Z,20.82
2017-04-17T14:57:04.400Z,20.77
2017-04-17T14:58:14.328Z,20.73
2017-04-17T14:59:23.946Z,20.7
2017-04-17T15:00:33.874Z,20.76
2017-04-17T15:01:44.113Z,20.8
2017-04-17T15:02:54.041Z,20.91
2017-04-17T15:04:04.008Z,20.88
2017-04-17T15:05:14.253Z,20.82
2017-04-17T15:06:24.491Z,20.88